Time;durP1;ratioP1;P1;durP2;ratioP2;P2;SDS_P1;SDS_P2;PMS_P1;PMS_P2;Temp;Humidity;BMP_temperature;BMP_pressure;BME280_temperature;BME280_humidity;BME280_pressure;Samples;Min_cycle;Max_cycle;Signal;HPM_P1;HPM_P2
2023/10/21 00:01:05;;;;;;;97.20;37.40;;;;;;;;;;5042553;28;20037;-79
2023/10/21 00:03:32;;;;;;;88.40;36.10;;;;;;;;;;5052988;28;20060;-79
2023/10/21 00:05:58;;;;;;;86.68;35.28;;;;;;;;;;5053561;28;20055;-80
2023/10/21 00:08:24;;;;;;;82.35;35.08;;;;;;;;;;5043308;28;20045;-79
2023/10/21 00:11:01;;;;;;;87.93;34.97;;;;;;;;;;5048162;28;20041;-80
2023/10/21 00:13:27;;;;;;;82.68;34.30;;;;;;;;;;5044491;28;20102;-79
2023/10/21 00:15:53;;;;;;;79.30;35.35;;;;;;;;;;5060807;28;20045;-80
2023/10/21 00:18:19;;;;;;;69.90;32.83;;;;;;;;;;5051202;28;20083;-79
2023/10/21 00:20:45;;;;;;;79.40;34.35;;;;;;;;;;5044145;28;20045;-80
2023/10/21 00:23:11;;;;;;;75.53;33.63;;;;;;;;;;5052327;28;20053;-80
2023/10/21 00:25:37;;;;;;;83.72;35.67;;;;;;;;;;5059584;28;20052;-80
2023/10/21 00:28:03;;;;;;;67.80;32.00;;;;;;;;;;5045751;28;20049;-80
2023/10/21 00:30:29;;;;;;;83.65;34.88;;;;;;;;;;5032992;28;20390;-80
2023/10/21 00:32:55;;;;;;;79.85;33.72;;;;;;;;;;5060849;28;20083;-79
2023/10/21 00:35:22;;;;;;;77.50;32.92;;;;;;;;;;5049512;28;20053;-79
2023/10/21 00:37:48;;;;;;;88.75;33.80;;;;;;;;;;5047959;28;20060;-80
2023/10/21 00:40:14;;;;;;;72.50;31.70;;;;;;;;;;5060722;28;20041;-80
2023/10/21 00:42:40;;;;;;;89.88;34.92;;;;;;;;;;5055778;28;20046;-80
2023/10/21 00:45:07;;;;;;;71.10;31.85;;;;;;;;;;5059190;28;20045;-79
2023/10/21 00:47:33;;;;;;;75.60;32.83;;;;;;;;;;5047540;28;20041;-80
2023/10/21 00:50:01;;;;;;;93.22;34.17;;;;;;;;;;5065488;28;20117;-80
2023/10/21 00:52:27;;;;;;;71.55;30.55;;;;;;;;;;5040663;28;20418;-80
2023/10/21 00:54:54;;;;;;;78.50;33.42;;;;;;;;;;5043262;28;20060;-80
2023/10/21 00:57:20;;;;;;;74.57;31.33;;;;;;;;;;5043195;28;20065;-81
2023/10/21 00:59:47;;;;;;;74.90;33.03;;;;;;;;;;5057248;28;20033;-79
2023/10/21 01:02:13;;;;;;;80.68;33.38;;;;;;;;;;5022613;28;20048;-80
2023/10/21 01:04:40;;;;;;;82.90;32.40;;;;;;;;;;5053972;28;20052;-81
2023/10/21 01:07:06;;;;;;;87.53;33.15;;;;;;;;;;5056177;28;20137;-80
2023/10/21 01:09:32;;;;;;;80.55;32.47;;;;;;;;;;5041709;28;20065;-80
2023/10/21 01:11:58;;;;;;;79.15;32.70;;;;;;;;;;5048966;28;20053;-79
2023/10/21 01:14:24;;;;;;;71.32;32.97;;;;;;;;;;5040522;28;20045;-80
2023/10/21 01:16:51;;;;;;;95.68;34.33;;;;;;;;;;5040445;28;20081;-80
2023/10/21 01:19:17;;;;;;;79.18;32.45;;;;;;;;;;5042555;28;20063;-80
2023/10/21 01:21:43;;;;;;;86.60;34.38;;;;;;;;;;5047715;28;20101;-80
2023/10/21 01:24:09;;;;;;;82.82;33.67;;;;;;;;;;5056979;28;20048;-80
2023/10/21 01:26:35;;;;;;;88.10;35.13;;;;;;;;;;5048478;28;20056;-80
2023/10/21 01:29:01;;;;;;;91.53;36.00;;;;;;;;;;5033254;28;20045;-79
2023/10/21 01:31:29;;;;;;;90.82;34.58;;;;;;;;;;5037546;28;20505;-79
2023/10/21 01:33:55;;;;;;;82.10;33.15;;;;;;;;;;5056719;28;20131;-79
2023/10/21 01:36:21;;;;;;;85.07;34.75;;;;;;;;;;5052829;28;20095;-79
2023/10/21 01:38:47;;;;;;;86.30;33.47;;;;;;;;;;5047233;28;20041;-79
2023/10/21 01:41:13;;;;;;;107.68;35.63;;;;;;;;;;5060525;28;20041;-79
2023/10/21 01:43:40;;;;;;;100.50;34.72;;;;;;;;;;5059898;28;20041;-79
2023/10/21 01:46:06;;;;;;;97.47;34.30;;;;;;;;;;5057375;28;20048;-80
2023/10/21 01:48:32;;;;;;;106.80;35.30;;;;;;;;;;5043724;28;20045;-79
2023/10/21 01:51:00;;;;;;;111.28;35.25;;;;;;;;;;5031210;28;20050;-80
2023/10/21 01:53:26;;;;;;;95.70;34.40;;;;;;;;;;5056434;28;20536;-80
2023/10/21 01:55:59;;;;;;;78.25;32.97;;;;;;;;;;5054739;28;20080;-79
2023/10/21 01:58:25;;;;;;;98.18;34.00;;;;;;;;;;5058803;28;20044;-79
2023/10/21 02:00:52;;;;;;;106.20;36.05;;;;;;;;;;5047345;28;20509;-80
2023/10/21 02:03:18;;;;;;;94.40;32.22;;;;;;;;;;5047447;28;20049;-80
2023/10/21 02:05:44;;;;;;;80.70;32.50;;;;;;;;;;5052173;28;20042;-80
2023/10/21 02:08:10;;;;;;;89.05;32.97;;;;;;;;;;5029411;28;20046;-79
2023/10/21 02:10:39;;;;;;;95.72;34.95;;;;;;;;;;5049672;28;20045;-80
2023/10/21 02:13:05;;;;;;;86.45;32.97;;;;;;;;;;5053811;28;20045;-79
2023/10/21 02:15:35;;;;;;;89.43;33.33;;;;;;;;;;5060364;28;20044;-79
2023/10/21 02:18:01;;;;;;;81.10;33.50;;;;;;;;;;5055038;28;20114;-79
2023/10/21 02:20:28;;;;;;;76.05;31.73;;;;;;;;;;5027999;28;20056;-79
2023/10/21 02:22:54;;;;;;;76.97;33.40;;;;;;;;;;5061032;28;20057;-80
2023/10/21 02:25:20;;;;;;;96.40;35.80;;;;;;;;;;5046083;28;20041;-79
2023/10/21 02:27:46;;;;;;;79.30;31.98;;;;;;;;;;5056890;28;20041;-79
2023/10/21 02:30:16;;;;;;;91.85;34.38;;;;;;;;;;5026875;28;20056;-80
2023/10/21 02:32:44;;;;;;;101.53;34.92;;;;;;;;;;5049534;28;20084;-80
2023/10/21 02:35:10;;;;;;;91.53;32.60;;;;;;;;;;5043848;28;20395;-81
2023/10/21 02:37:36;;;;;;;92.38;34.55;;;;;;;;;;5036807;28;20070;-81
2023/10/21 02:40:03;;;;;;;95.97;34.58;;;;;;;;;;5057082;28;20037;-80
2023/10/21 02:42:30;;;;;;;94.47;33.35;;;;;;;;;;5055109;28;20070;-80
2023/10/21 02:44:57;;;;;;;96.90;34.03;;;;;;;;;;5062637;28;20048;-80
2023/10/21 02:47:23;;;;;;;101.20;34.30;;;;;;;;;;5043307;28;20106;-80
2023/10/21 02:49:49;;;;;;;116.03;34.97;;;;;;;;;;5057677;28;20045;-80
2023/10/21 02:52:15;;;;;;;130.65;35.75;;;;;;;;;;5029906;28;20049;-81
2023/10/21 02:54:41;;;;;;;85.88;32.38;;;;;;;;;;5046899;28;20053;-81
2023/10/21 02:57:07;;;;;;;93.32;33.22;;;;;;;;;;5054868;28;20051;-80
2023/10/21 02:59:35;;;;;;;99.03;34.28;;;;;;;;;;5049954;28;20395;-80
2023/10/21 03:02:01;;;;;;;107.60;34.67;;;;;;;;;;5057924;28;20057;-81
2023/10/21 03:04:27;;;;;;;98.35;33.60;;;;;;;;;;5061964;28;20064;-81
2023/10/21 03:06:53;;;;;;;93.47;32.42;;;;;;;;;;5059031;28;20032;-81
2023/10/21 03:09:19;;;;;;;83.40;31.50;;;;;;;;;;5062038;28;20074;-80
2023/10/21 03:11:45;;;;;;;73.30;31.38;;;;;;;;;;5047993;28;20049;-80
2023/10/21 03:14:11;;;;;;;81.90;31.52;;;;;;;;;;5049891;28;20037;-80
2023/10/21 03:16:37;;;;;;;74.70;32.63;;;;;;;;;;5056592;28;20041;-80
2023/10/21 03:19:06;;;;;;;78.57;32.22;;;;;;;;;;5052362;28;20037;-81
2023/10/21 03:21:32;;;;;;;94.53;34.75;;;;;;;;;;5046897;28;20038;-81
2023/10/21 03:23:58;;;;;;;81.80;32.38;;;;;;;;;;5052264;28;20501;-81
2023/10/21 03:26:24;;;;;;;78.00;31.50;;;;;;;;;;5040573;28;20117;-81
2023/10/21 03:28:51;;;;;;;76.00;31.58;;;;;;;;;;5062582;28;20044;-81
2023/10/21 03:31:17;;;;;;;74.38;30.45;;;;;;;;;;5022214;28;20457;-82
2023/10/21 03:33:44;;;;;;;82.70;31.92;;;;;;;;;;5062410;28;20125;-81
2023/10/21 03:36:10;;;;;;;74.57;31.67;;;;;;;;;;5047417;28;20115;-81
2023/10/21 03:38:37;;;;;;;83.90;30.58;;;;;;;;;;5043686;28;20078;-80
2023/10/21 03:41:04;;;;;;;81.70;31.58;;;;;;;;;;5048249;28;20087;-81
2023/10/21 03:43:31;;;;;;;70.32;29.98;;;;;;;;;;5044444;28;20050;-81
2023/10/21 03:45:57;;;;;;;71.90;29.35;;;;;;;;;;5055382;28;20040;-81
2023/10/21 03:48:23;;;;;;;72.63;29.15;;;;;;;;;;5049252;28;20406;-81
2023/10/21 03:50:50;;;;;;;67.82;29.38;;;;;;;;;;5045818;28;20037;-81
2023/10/21 03:53:16;;;;;;;80.53;30.10;;;;;;;;;;5042506;28;20049;-81
2023/10/21 03:55:43;;;;;;;73.28;29.80;;;;;;;;;;5053141;28;20064;-81
2023/10/21 03:58:10;;;;;;;67.95;27.88;;;;;;;;;;5042698;28;20059;-81
2023/10/21 04:00:36;;;;;;;55.35;27.42;;;;;;;;;;5057314;28;20053;-81
2023/10/21 04:03:02;;;;;;;63.88;28.40;;;;;;;;;;5037604;28;21643;-81
2023/10/21 04:05:28;;;;;;;54.30;27.13;;;;;;;;;;5046323;28;20044;-81
2023/10/21 04:07:55;;;;;;;51.97;25.23;;;;;;;;;;5045469;28;20072;-81
2023/10/21 04:10:21;;;;;;;69.45;28.42;;;;;;;;;;5049634;28;20049;-81
2023/10/21 04:12:47;;;;;;;67.35;27.92;;;;;;;;;;5055226;28;20076;-81
2023/10/21 04:15:14;;;;;;;69.15;28.27;;;;;;;;;;5043091;28;20442;-81
2023/10/21 04:17:40;;;;;;;68.93;27.70;;;;;;;;;;5042570;28;20056;-81
2023/10/21 04:20:06;;;;;;;64.65;26.52;;;;;;;;;;5027074;28;20041;-81
2023/10/21 04:22:35;;;;;;;53.28;25.83;;;;;;;;;;5050133;28;20041;-81
2023/10/21 04:25:01;;;;;;;57.10;26.40;;;;;;;;;;5042350;28;20059;-80
2023/10/21 04:27:27;;;;;;;54.75;25.15;;;;;;;;;;5053125;28;20076;-81
2023/10/21 04:29:54;;;;;;;56.58;26.10;;;;;;;;;;5056659;28;20095;-81
2023/10/21 04:32:20;;;;;;;50.22;24.70;;;;;;;;;;5051476;28;20072;-81
2023/10/21 04:34:46;;;;;;;59.22;25.17;;;;;;;;;;5046328;28;20043;-81
2023/10/21 04:37:12;;;;;;;56.55;24.95;;;;;;;;;;5051179;28;20049;-81
2023/10/21 04:39:39;;;;;;;58.08;25.50;;;;;;;;;;5042522;28;20049;-81
2023/10/21 04:42:05;;;;;;;57.47;24.75;;;;;;;;;;5044352;28;20415;-81
2023/10/21 04:44:32;;;;;;;61.75;25.08;;;;;;;;;;5024233;28;20128;-81
2023/10/21 04:46:58;;;;;;;54.08;23.80;;;;;;;;;;5045740;28;20084;-82
2023/10/21 04:49:25;;;;;;;55.17;23.88;;;;;;;;;;5044986;28;20136;-80
2023/10/21 04:51:51;;;;;;;61.03;24.05;;;;;;;;;;5042869;28;20049;-80
2023/10/21 04:54:17;;;;;;;64.15;23.63;;;;;;;;;;5034134;28;20064;-81
2023/10/21 04:56:43;;;;;;;52.45;22.58;;;;;;;;;;5059265;28;20076;-81
2023/10/21 04:59:09;;;;;;;52.13;23.55;;;;;;;;;;5062207;28;20041;-81
2023/10/21 05:01:35;;;;;;;50.97;23.23;;;;;;;;;;5060665;28;20452;-82
2023/10/21 05:04:02;;;;;;;53.90;23.88;;;;;;;;;;5035816;28;20395;-81
2023/10/21 05:06:28;;;;;;;52.65;23.27;;;;;;;;;;5048447;28;20733;-81
2023/10/21 05:08:55;;;;;;;46.05;23.35;;;;;;;;;;5039932;28;21589;-81
2023/10/21 05:11:21;;;;;;;46.15;23.05;;;;;;;;;;5042530;28;20041;-81
2023/10/21 05:13:47;;;;;;;53.50;24.00;;;;;;;;;;5042686;28;20071;-81
2023/10/21 05:16:13;;;;;;;48.17;22.58;;;;;;;;;;5049297;28;20041;-82
2023/10/21 05:18:39;;;;;;;49.13;23.63;;;;;;;;;;5042037;28;20041;-81
2023/10/21 05:21:08;;;;;;;49.67;23.38;;;;;;;;;;5049470;28;20051;-81
2023/10/21 05:23:35;;;;;;;49.60;23.40;;;;;;;;;;5054998;28;20037;-82
2023/10/21 05:26:01;;;;;;;47.22;21.63;;;;;;;;;;5058654;28;20136;-81
2023/10/21 05:28:27;;;;;;;46.85;22.55;;;;;;;;;;5060293;28;20045;-81
2023/10/21 05:30:53;;;;;;;45.13;22.33;;;;;;;;;;5058797;28;20401;-81
2023/10/21 05:33:19;;;;;;;51.30;24.15;;;;;;;;;;5049780;28;20049;-81
2023/10/21 05:35:45;;;;;;;46.92;21.77;;;;;;;;;;5048697;28;20091;-81
2023/10/21 05:38:11;;;;;;;46.58;23.15;;;;;;;;;;5051488;28;20033;-81
2023/10/21 05:40:38;;;;;;;43.45;21.52;;;;;;;;;;5044775;28;20041;-81
2023/10/21 05:43:04;;;;;;;44.03;22.50;;;;;;;;;;5057455;28;20052;-81
2023/10/21 05:45:30;;;;;;;50.40;22.60;;;;;;;;;;5056037;28;20096;-82
2023/10/21 05:47:56;;;;;;;43.45;22.05;;;;;;;;;;5047710;28;20045;-81
2023/10/21 05:50:24;;;;;;;45.28;21.90;;;;;;;;;;5054092;28;20040;-81
2023/10/21 05:52:51;;;;;;;41.20;22.58;;;;;;;;;;5044972;28;20477;-81
2023/10/21 05:55:18;;;;;;;40.30;21.83;;;;;;;;;;5041236;28;20061;-81
2023/10/21 05:57:44;;;;;;;49.72;23.13;;;;;;;;;;5055556;28;20093;-81
2023/10/21 06:00:10;;;;;;;47.75;23.58;;;;;;;;;;5060620;28;20052;-81
2023/10/21 06:02:36;;;;;;;48.08;22.05;;;;;;;;;;5061447;28;20048;-82
2023/10/21 06:05:05;;;;;;;45.10;22.58;;;;;;;;;;5051094;28;20138;-81
2023/10/21 06:07:31;;;;;;;44.67;21.75;;;;;;;;;;5050632;28;20089;-81
2023/10/21 06:09:57;;;;;;;43.47;21.10;;;;;;;;;;5058545;28;20041;-81
2023/10/21 06:12:23;;;;;;;38.85;20.17;;;;;;;;;;5033492;28;20073;-81
2023/10/21 06:14:50;;;;;;;38.50;21.15;;;;;;;;;;5046353;28;20052;-81
2023/10/21 06:17:16;;;;;;;39.17;21.88;;;;;;;;;;5049189;28;20094;-81
2023/10/21 06:19:44;;;;;;;36.88;20.20;;;;;;;;;;5026795;28;20050;-81
2023/10/21 06:22:12;;;;;;;45.25;22.20;;;;;;;;;;5043207;28;20041;-81
2023/10/21 06:24:39;;;;;;;46.42;22.08;;;;;;;;;;5063843;28;20068;-81
2023/10/21 06:27:07;;;;;;;44.97;21.45;;;;;;;;;;5054911;28;20045;-82
2023/10/21 06:29:33;;;;;;;43.72;20.05;;;;;;;;;;5063441;28;20101;-81
2023/10/21 06:32:00;;;;;;;36.28;20.75;;;;;;;;;;5053356;28;20044;-81
2023/10/21 06:34:26;;;;;;;40.40;21.63;;;;;;;;;;5050012;28;20666;-81
2023/10/21 06:36:52;;;;;;;40.53;20.45;;;;;;;;;;5046080;28;20044;-80
2023/10/21 06:39:18;;;;;;;35.65;20.38;;;;;;;;;;5028227;28;20053;-77
2023/10/21 06:41:45;;;;;;;23.27;15.18;;;;;;;;;;5049933;28;20060;-78
2023/10/21 06:44:11;;;;;;;28.98;19.05;;;;;;;;;;5045395;28;20073;-79
2023/10/21 06:46:38;;;;;;;34.60;19.25;;;;;;;;;;5058799;28;20124;-82
2023/10/21 06:49:04;;;;;;;35.13;19.90;;;;;;;;;;5048836;28;20049;-83
2023/10/21 06:51:31;;;;;;;37.38;20.15;;;;;;;;;;5042481;28;20041;-83
2023/10/21 06:53:57;;;;;;;40.28;20.67;;;;;;;;;;5021955;28;20121;-83
2023/10/21 06:56:24;;;;;;;31.70;18.52;;;;;;;;;;5060110;28;20055;-82
2023/10/21 06:58:52;;;;;;;37.80;19.75;;;;;;;;;;5064782;28;20072;-83
2023/10/21 07:01:18;;;;;;;31.63;19.30;;;;;;;;;;5062491;28;20061;-82
2023/10/21 07:03:44;;;;;;;34.97;19.17;;;;;;;;;;5046102;28;20042;-83
2023/10/21 07:06:11;;;;;;;34.88;19.23;;;;;;;;;;5046793;28;20053;-82
2023/10/21 07:08:37;;;;;;;39.05;20.00;;;;;;;;;;5046842;28;20054;-82
2023/10/21 07:11:03;;;;;;;35.15;20.33;;;;;;;;;;5050804;28;20048;-82
2023/10/21 07:13:30;;;;;;;32.10;18.40;;;;;;;;;;5064110;28;20103;-82
2023/10/21 07:15:56;;;;;;;35.78;20.15;;;;;;;;;;5055207;28;20057;-82
2023/10/21 07:18:22;;;;;;;37.03;19.67;;;;;;;;;;5065168;28;20053;-82
2023/10/21 07:20:56;;;;;;;35.25;20.63;;;;;;;;;;5057004;28;20041;-83
2023/10/21 07:23:23;;;;;;;32.83;19.73;;;;;;;;;;5064264;28;20072;-82
2023/10/21 07:25:49;;;;;;;37.00;19.65;;;;;;;;;;5064721;28;20048;-83
2023/10/21 07:28:15;;;;;;;38.10;20.55;;;;;;;;;;5044944;28;20055;-83
2023/10/21 07:30:41;;;;;;;33.92;19.20;;;;;;;;;;5065350;28;20049;-83
2023/10/21 07:33:07;;;;;;;34.70;19.63;;;;;;;;;;5063639;28;20099;-82
2023/10/21 07:35:33;;;;;;;31.88;19.63;;;;;;;;;;5056800;28;20059;-83
2023/10/21 07:37:59;;;;;;;32.97;19.08;;;;;;;;;;5057460;28;20052;-83
2023/10/21 07:40:26;;;;;;;31.85;18.42;;;;;;;;;;5045287;28;20052;-83
2023/10/21 07:42:54;;;;;;;37.17;20.08;;;;;;;;;;5051723;28;20052;-83
2023/10/21 07:45:21;;;;;;;33.25;19.52;;;;;;;;;;5045701;28;20049;-82
2023/10/21 07:47:47;;;;;;;30.25;18.25;;;;;;;;;;5027963;28;20364;-83
2023/10/21 07:50:13;;;;;;;32.50;19.98;;;;;;;;;;5051000;28;20094;-83
2023/10/21 07:52:40;;;;;;;34.97;21.00;;;;;;;;;;5032136;28;20073;-83
2023/10/21 07:55:06;;;;;;;32.50;21.23;;;;;;;;;;5058254;28;20080;-82
2023/10/21 07:57:33;;;;;;;35.13;19.75;;;;;;;;;;5045448;28;20108;-83
2023/10/21 07:59:59;;;;;;;32.97;18.50;;;;;;;;;;5061712;28;20486;-83
2023/10/21 08:02:26;;;;;;;33.55;19.65;;;;;;;;;;5046727;28;20059;-83
2023/10/21 08:04:52;;;;;;;34.55;18.42;;;;;;;;;;5063797;28;20048;-83
2023/10/21 08:07:18;;;;;;;35.83;18.85;;;;;;;;;;5044385;28;20057;-83
2023/10/21 08:09:44;;;;;;;34.63;18.17;;;;;;;;;;5044777;28;20037;-82
2023/10/21 08:12:11;;;;;;;27.25;18.30;;;;;;;;;;5051249;28;20550;-83
2023/10/21 08:14:40;;;;;;;32.63;18.65;;;;;;;;;;5045059;28;20049;-83
2023/10/21 08:17:07;;;;;;;30.63;18.65;;;;;;;;;;5063346;28;20063;-82
2023/10/21 08:19:34;;;;;;;25.45;18.00;;;;;;;;;;5062683;28;20037;-82
2023/10/21 08:22:01;;;;;;;28.83;18.33;;;;;;;;;;5045255;28;20486;-83
2023/10/21 08:24:27;;;;;;;26.33;17.10;;;;;;;;;;5073750;28;20046;-82
2023/10/21 08:26:53;;;;;;;26.17;17.90;;;;;;;;;;5082083;28;20043;-82
2023/10/21 08:29:20;;;;;;;25.92;16.27;;;;;;;;;;5083463;28;20117;-82
2023/10/21 08:31:47;;;;;;;25.67;16.20;;;;;;;;;;5062429;28;20061;-81
2023/10/21 08:34:13;;;;;;;21.25;14.85;;;;;;;;;;5079742;28;20056;-81
2023/10/21 08:36:40;;;;;;;26.80;16.08;;;;;;;;;;5057396;28;20045;-81
2023/10/21 08:39:09;;;;;;;23.70;14.55;;;;;;;;;;5057642;28;20041;-80
2023/10/21 08:41:37;;;;;;;19.15;14.02;;;;;;;;;;5062422;28;20067;-80
2023/10/21 08:44:03;;;;;;;21.23;13.70;;;;;;;;;;5061120;28;20049;-80
2023/10/21 08:46:32;;;;;;;18.15;12.80;;;;;;;;;;5060801;28;20047;-82
2023/10/21 08:48:58;;;;;;;22.83;13.95;;;;;;;;;;5053214;28;20050;-79
2023/10/21 08:51:26;;;;;;;19.50;13.30;;;;;;;;;;5038312;28;20378;-82
2023/10/21 08:53:53;;;;;;;19.98;13.23;;;;;;;;;;5038666;28;20128;-81
2023/10/21 08:56:20;;;;;;;17.55;12.40;;;;;;;;;;5039195;28;20554;-81
2023/10/21 08:58:46;;;;;;;17.48;11.55;;;;;;;;;;5055165;28;20149;-79
2023/10/21 09:01:14;;;;;;;19.70;12.02;;;;;;;;;;5021294;28;20132;-79
2023/10/21 09:03:41;;;;;;;18.75;12.23;;;;;;;;;;5049323;28;20033;-80
2023/10/21 09:06:10;;;;;;;16.20;10.90;;;;;;;;;;5064903;28;20056;-81
2023/10/21 09:08:36;;;;;;;19.25;11.73;;;;;;;;;;5073967;28;20048;-80
2023/10/21 09:11:06;;;;;;;18.05;10.80;;;;;;;;;;5062326;28;20051;-78
2023/10/21 09:13:34;;;;;;;16.30;9.73;;;;;;;;;;5043442;28;20064;-80
2023/10/21 09:16:01;;;;;;;13.27;9.05;;;;;;;;;;5080798;28;20051;-79
2023/10/21 09:18:27;;;;;;;14.20;9.15;;;;;;;;;;5064822;28;20045;-80
2023/10/21 09:20:53;;;;;;;15.00;8.38;;;;;;;;;;5044521;28;20061;-80
2023/10/21 09:23:19;;;;;;;13.23;8.52;;;;;;;;;;5059020;28;20042;-80
2023/10/21 09:25:52;;;;;;;13.27;8.30;;;;;;;;;;5064357;28;20060;-80
2023/10/21 09:28:22;;;;;;;12.18;7.68;;;;;;;;;;5047189;28;20049;-80
2023/10/21 09:30:58;;;;;;;14.52;7.80;;;;;;;;;;5066607;28;20048;-81
2023/10/21 09:33:24;;;;;;;12.30;7.30;;;;;;;;;;5056578;28;20481;-80
2023/10/21 09:36:04;;;;;;;13.77;6.80;;;;;;;;;;5054951;28;20048;-82
2023/10/21 09:38:36;;;;;;;14.35;6.53;;;;;;;;;;5056651;28;20106;-83
2023/10/21 09:41:08;;;;;;;14.60;7.20;;;;;;;;;;5059917;28;20079;-82
2023/10/21 09:43:37;;;;;;;14.60;6.68;;;;;;;;;;5062363;28;20053;-82
2023/10/21 09:46:05;;;;;;;12.45;6.30;;;;;;;;;;5029476;28;20049;-83
2023/10/21 09:48:44;;;;;;;13.68;5.60;;;;;;;;;;5034030;28;20049;-82
2023/10/21 09:51:12;;;;;;;10.38;5.95;;;;;;;;;;5059518;28;20120;-82
2023/10/21 09:53:40;;;;;;;11.57;5.70;;;;;;;;;;5059010;28;20049;-83
2023/10/21 09:56:07;;;;;;;9.75;5.30;;;;;;;;;;5059802;28;20049;-82
2023/10/21 09:58:34;;;;;;;10.10;5.32;;;;;;;;;;5042792;28;20064;-82
2023/10/21 10:01:05;;;;;;;11.20;5.90;;;;;;;;;;5050033;28;20495;-82
2023/10/21 10:03:34;;;;;;;10.68;5.43;;;;;;;;;;5052818;28;20080;-82
2023/10/21 10:06:03;;;;;;;9.57;5.30;;;;;;;;;;5058349;28;20100;-82
2023/10/21 10:08:29;;;;;;;9.75;4.35;;;;;;;;;;5037060;28;20049;-80
2023/10/21 10:10:55;;;;;;;7.63;2.50;;;;;;;;;;5050392;28;20045;-82
2023/10/21 10:13:23;;;;;;;5.90;2.33;;;;;;;;;;5057962;28;20104;-83
2023/10/21 10:15:49;;;;;;;5.68;1.83;;;;;;;;;;5052671;28;20052;-83
2023/10/21 10:18:19;;;;;;;4.63;1.50;;;;;;;;;;5049507;28;20494;-83
2023/10/21 10:20:55;;;;;;;3.97;1.60;;;;;;;;;;5058920;28;20041;-81
2023/10/21 10:23:24;;;;;;;5.50;1.70;;;;;;;;;;5022666;28;20042;-82
2023/10/21 10:25:54;;;;;;;4.95;1.50;;;;;;;;;;5059751;28;20056;-83
2023/10/21 10:28:21;;;;;;;4.72;1.50;;;;;;;;;;5059757;28;20111;-83
2023/10/21 10:30:49;;;;;;;5.85;1.80;;;;;;;;;;5061436;28;20505;-82
2023/10/21 10:33:22;;;;;;;5.10;1.77;;;;;;;;;;5057832;28;20061;-82
2023/10/21 10:35:52;;;;;;;4.53;1.40;;;;;;;;;;5024188;28;20048;-82
2023/10/21 10:38:24;;;;;;;5.18;1.25;;;;;;;;;;5056984;28;20059;-82
2023/10/21 10:40:51;;;;;;;4.05;1.00;;;;;;;;;;5046513;28;20053;-82
2023/10/21 10:43:20;;;;;;;2.88;1.00;;;;;;;;;;5052931;28;20045;-82
2023/10/21 10:45:47;;;;;;;4.57;1.40;;;;;;;;;;5040489;28;20083;-82
2023/10/21 10:48:15;;;;;;;2.75;0.90;;;;;;;;;;5043049;28;20049;-84
2023/10/21 10:50:41;;;;;;;4.05;0.98;;;;;;;;;;5059632;28;20124;-82
2023/10/21 10:53:13;;;;;;;4.60;0.88;;;;;;;;;;5060513;28;20055;-82
2023/10/21 10:55:42;;;;;;;3.75;1.10;;;;;;;;;;5067078;28;20088;-82
2023/10/21 10:58:08;;;;;;;2.88;0.98;;;;;;;;;;5068968;28;20091;-81
2023/10/21 11:00:34;;;;;;;4.00;0.77;;;;;;;;;;5062237;28;20048;-81
2023/10/21 11:03:00;;;;;;;3.53;0.80;;;;;;;;;;5049433;28;20057;-81
2023/10/21 11:05:28;;;;;;;5.00;1.17;;;;;;;;;;5056439;28;20072;-81
2023/10/21 11:07:55;;;;;;;2.65;0.70;;;;;;;;;;5047203;28;20051;-81
2023/10/21 11:10:22;;;;;;;3.17;0.80;;;;;;;;;;5062303;28;20044;-82
2023/10/21 11:12:52;;;;;;;3.63;0.85;;;;;;;;;;5064418;28;20044;-82
2023/10/21 11:15:20;;;;;;;3.85;0.95;;;;;;;;;;5059686;28;20045;-82
2023/10/21 11:17:47;;;;;;;3.42;0.90;;;;;;;;;;5064038;28;20107;-82
2023/10/21 11:20:13;;;;;;;2.50;0.80;;;;;;;;;;5026832;28;20065;-82
2023/10/21 11:22:40;;;;;;;2.50;0.70;;;;;;;;;;5020253;28;20137;-82
2023/10/21 11:25:07;;;;;;;3.85;0.60;;;;;;;;;;5051060;28;20056;-82
2023/10/21 11:27:33;;;;;;;3.05;0.77;;;;;;;;;;5062292;28;20041;-82
2023/10/21 11:30:07;;;;;;;4.25;0.88;;;;;;;;;;5044920;28;20041;-82
2023/10/21 11:32:34;;;;;;;3.17;0.77;;;;;;;;;;5065748;28;20059;-82
2023/10/21 11:35:09;;;;;;;2.45;0.60;;;;;;;;;;5055504;28;20048;-83
2023/10/21 11:37:37;;;;;;;3.00;0.70;;;;;;;;;;5048410;28;20073;-83
2023/10/21 11:40:03;;;;;;;2.63;0.77;;;;;;;;;;5070685;28;20048;-83
2023/10/21 11:42:29;;;;;;;2.20;0.90;;;;;;;;;;5077887;28;20362;-83
2023/10/21 11:44:58;;;;;;;3.10;0.90;;;;;;;;;;5058517;28;20061;-83
2023/10/21 11:47:29;;;;;;;3.38;0.93;;;;;;;;;;5050128;28;20052;-83
2023/10/21 11:49:55;;;;;;;2.92;0.80;;;;;;;;;;5064786;28;20056;-83
2023/10/21 11:52:22;;;;;;;4.25;0.90;;;;;;;;;;5060394;28;20056;-83
2023/10/21 12:09:51;;;;;;;3.47;0.90;;;;;;;;;;5054995;28;20057;-82
2023/10/21 12:17:46;;;;;;;2.85;0.70;;;;;;;;;;5027957;28;20561;-81
2023/10/21 12:20:24;;;;;;;4.38;0.80;;;;;;;;;;5046497;28;20046;-83
2023/10/21 12:23:14;;;;;;;4.20;0.80;;;;;;;;;;5050579;28;20135;-83
2023/10/21 12:36:42;;;;;;;3.65;0.70;;;;;;;;;;5055425;28;20061;-83
2023/10/21 12:41:41;;;;;;;4.97;0.70;;;;;;;;;;5061822;28;20064;-83
2023/10/21 12:44:14;;;;;;;5.43;0.90;;;;;;;;;;5055519;28;20060;-83
2023/10/21 12:46:43;;;;;;;5.55;0.70;;;;;;;;;;5049421;28;20052;-83
2023/10/21 12:49:20;;;;;;;6.22;0.90;;;;;;;;;;5051451;28;20052;-84
2023/10/21 12:51:46;;;;;;;3.47;0.75;;;;;;;;;;5053919;28;20124;-83
2023/10/21 12:54:12;;;;;;;4.05;0.80;;;;;;;;;;5058287;28;20045;-83
2023/10/21 12:56:38;;;;;;;6.10;0.90;;;;;;;;;;5067373;28;20060;-83
2023/10/21 12:59:06;;;;;;;2.78;0.68;;;;;;;;;;5051769;28;20049;-83
2023/10/21 13:01:33;;;;;;;3.28;0.80;;;;;;;;;;5040941;28;20100;-83
2023/10/21 13:03:59;;;;;;;4.53;0.90;;;;;;;;;;5040292;28;20092;-83
2023/10/21 13:06:25;;;;;;;3.22;0.73;;;;;;;;;;5067145;28;20052;-81
2023/10/21 13:08:51;;;;;;;4.35;0.85;;;;;;;;;;5054456;28;20055;-81
2023/10/21 13:11:18;;;;;;;3.78;0.80;;;;;;;;;;5066433;28;20052;-81
2023/10/21 13:13:44;;;;;;;4.40;0.80;;;;;;;;;;5054877;28;20045;-82
2023/10/21 13:16:10;;;;;;;3.85;0.85;;;;;;;;;;5056299;28;20040;-82
2023/10/21 13:18:37;;;;;;;3.80;0.77;;;;;;;;;;5066684;28;20428;-83
2023/10/21 13:21:06;;;;;;;5.22;1.00;;;;;;;;;;5049361;28;20055;-82
2023/10/21 13:23:34;;;;;;;4.65;0.75;;;;;;;;;;5060387;28;20058;-82
2023/10/21 13:26:00;;;;;;;4.78;1.10;;;;;;;;;;5047183;28;20068;-82
2023/10/21 13:28:26;;;;;;;3.13;0.68;;;;;;;;;;5046408;28;20049;-83
2023/10/21 13:30:53;;;;;;;6.80;1.00;;;;;;;;;;5067210;28;20108;-82
2023/10/21 13:33:19;;;;;;;5.95;1.10;;;;;;;;;;5049983;28;20045;-82
2023/10/21 13:35:45;;;;;;;5.40;1.42;;;;;;;;;;5052883;28;20037;-83
2023/10/21 13:38:11;;;;;;;4.25;1.02;;;;;;;;;;5066893;28;20048;-83
2023/10/21 13:40:39;;;;;;;4.07;1.10;;;;;;;;;;5042591;28;20045;-83
2023/10/21 13:43:05;;;;;;;3.95;0.90;;;;;;;;;;5082064;28;20186;-83
2023/10/21 13:45:32;;;;;;;5.25;1.02;;;;;;;;;;5067458;28;20049;-83
2023/10/21 13:48:08;;;;;;;5.45;1.00;;;;;;;;;;5061850;28;20049;-83
2023/10/21 13:50:38;;;;;;;7.70;0.93;;;;;;;;;;5047143;28;20053;-83
2023/10/21 13:53:15;;;;;;;4.15;0.98;;;;;;;;;;5050732;28;20088;-82
2023/10/21 13:55:42;;;;;;;5.07;1.00;;;;;;;;;;5048971;28;20057;-83
2023/10/21 13:58:08;;;;;;;4.72;1.00;;;;;;;;;;5048239;28;20049;-83
2023/10/21 14:00:35;;;;;;;5.60;1.10;;;;;;;;;;5049116;28;20071;-83
2023/10/21 14:03:08;;;;;;;4.80;1.10;;;;;;;;;;5046824;28;20064;-82
2023/10/21 14:05:35;;;;;;;4.72;1.05;;;;;;;;;;5041002;28;20189;-83
2023/10/21 14:08:03;;;;;;;4.05;0.90;;;;;;;;;;5064922;28;20067;-83
2023/10/21 14:10:29;;;;;;;5.15;1.08;;;;;;;;;;5048674;28;20124;-82
2023/10/21 14:12:55;;;;;;;5.35;1.10;;;;;;;;;;5066084;28;20057;-82
2023/10/21 14:15:21;;;;;;;6.75;0.98;;;;;;;;;;5051163;28;20045;-83
2023/10/21 14:17:47;;;;;;;5.43;0.90;;;;;;;;;;5046886;28;20049;-81
2023/10/21 14:20:14;;;;;;;5.65;1.08;;;;;;;;;;5065724;28;20040;-81
2023/10/21 14:22:40;;;;;;;7.20;1.42;;;;;;;;;;5069554;28;20482;-81
2023/10/21 14:25:07;;;;;;;4.20;1.10;;;;;;;;;;5044597;28;20045;-81
2023/10/21 14:27:33;;;;;;;6.70;1.10;;;;;;;;;;5038574;28;20042;-81
2023/10/21 14:30:09;;;;;;;8.68;1.45;;;;;;;;;;5056040;28;20045;-82
2023/10/21 14:32:41;;;;;;;5.65;1.23;;;;;;;;;;5051897;28;20168;-81
2023/10/21 14:35:09;;;;;;;4.97;1.20;;;;;;;;;;5061328;28;20111;-81
2023/10/21 14:37:35;;;;;;;4.72;1.20;;;;;;;;;;5066820;28;20052;-81
2023/10/21 14:40:10;;;;;;;8.65;1.48;;;;;;;;;;5067338;28;20462;-81
2023/10/21 14:42:37;;;;;;;8.30;1.63;;;;;;;;;;5066074;28;20087;-83
2023/10/21 14:45:11;;;;;;;5.38;1.63;;;;;;;;;;5037275;28;20069;-82
2023/10/21 14:47:37;;;;;;;6.45;1.58;;;;;;;;;;5062800;28;20540;-81
2023/10/21 14:50:09;;;;;;;3.90;1.20;;;;;;;;;;5054481;28;20072;-82
2023/10/21 14:52:37;;;;;;;4.47;1.17;;;;;;;;;;5065970;28;20049;-81
2023/10/21 14:55:05;;;;;;;5.63;1.25;;;;;;;;;;5052399;28;20058;-81
2023/10/21 14:57:32;;;;;;;8.05;1.70;;;;;;;;;;5057739;28;20057;-82
2023/10/21 15:00:04;;;;;;;5.07;1.30;;;;;;;;;;5027270;28;20074;-82